Hovedside
METAR-TAF:

METAR-TAF

Lufthavner :

Sharm el-Sheikh, Egypt

breddegrad: 27-58N, lengdegrad: 034-23E, høyde over havet: 50 m

Gjeldene værobservasjon

Denne rapporten ble laget for 1 time og 24 minutter siden, klokken 19:00 UTC
Vind 3 kt fra Nord
Temperatur 23°C
Luftfuktighet 36%
Trykk 1017 hPa
Sikt 10 km eller mer
ingen skyer under 1500 m og ingen bygeskyer

METAR: HESH 281900Z 36003KT CAVOK 23/07 Q1017 NOSIG

Tid: 22:24 (20:24 UTC)

Varsel

Denne rapporten ble laget for 3 timer og 24 minutter siden, klokken 17:00 UTC
Varsel gyldig fra 28. klokken 18 UTC til 29. klokken 24 UTC
Vind 10 kt fra Nord
Sikt 10 km eller mer
ingen skyer under 1500 m og ingen bygeskyer

TAF: HESH 281700Z 2818/2924 36010KT CAVOK

Værobservasjoner og værvarsel for over 4000 flyplasser (METAR- og TAF-rapporter).

Tilgjengelige stasjoner er representert av de røde og gule prikkene på kartet.

Hold musepekeren over prikken for å se navnet på stasjonen.

Klikk så for å se værobservasjoner og -varsler.

For å forandre kartet kan du klikke på den grønne knappen med svart kryss for å zoome inn, på den grønne knappen med strek for å zoome ut, eller på de grønne pilene for å se tilstøtende kart.


METAR-TAF: